Port Alsworth, Alaska
Current Conditions -  °F | °C
As of 10:53 PM on Thursday 23 Oct 2014 (Local Time) from PAIL Reporting Station
Overcast Overcast  
Wind Chill: 24°   Ceiling: 5500
Heat Index: 29°   Visibility: 10mi
Dew Point: 22°   Wind: 5mph
Humidity: 75%   Direction: 310°NW
Pressure: 29.85"   Gusts: NA
Location:  60.2°N, 154.32°W
Report Text: PAIL 240653Z AUTO 31004KT 10SM OVC055 M02/M06 A2985 RMK AO2 SLP113 T10171056 TSNO
Loading
Personal Weather Stations






























Interactive Weather Map
Tropical Storm Tracking
New forecast layout! Learn more

10-Day Weather Forecast

Advertisements
Track Severe Weather on mobile